Time;durP1;ratioP1;P1;durP2;ratioP2;P2;SDS_P1;SDS_P2;PMS_P1;PMS_P2;Temp;Humidity;BMP_temperature;BMP_pressure;BME280_temperature;BME280_humidity;BME280_pressure;Samples;Min_cycle;Max_cycle;Signal;HPM_P1;HPM_P2
2022/06/21 00:00:33;;;;;;;;;;;;;;;22.56;52.84;99027.38;6270156;28;19928;-84
2022/06/21 00:03:34;;;;;;;;;;;;;;;22.56;52.79;99035.38;6270321;28;19925;-84
2022/06/21 00:06:34;;;;;;;;;;;;;;;22.52;52.97;99034.94;6270383;28;19951;-84
2022/06/21 00:09:35;;;;;;;;;;;;;;;22.57;52.90;99026.38;6270145;28;19921;-84
2022/06/21 00:12:36;;;;;;;;;;;;;;;22.53;53.33;99041.91;6257137;28;19925;-84
2022/06/21 00:15:37;;;;;;;;;;;;;;;22.48;53.21;99031.03;6257850;28;19927;-83
2022/06/21 00:18:39;;;;;;;;;;;;;;;22.47;53.39;99036.56;6259343;28;19928;-84
2022/06/21 00:21:40;;;;;;;;;;;;;;;22.44;53.60;99034.28;6258964;28;20058;-84
2022/06/21 00:24:42;;;;;;;;;;;;;;;22.42;53.53;99034.47;6255131;28;19960;-84
2022/06/21 00:27:43;;;;;;;;;;;;;;;22.32;54.03;99036.63;6255881;28;20379;-82
2022/06/21 00:30:46;;;;;;;;;;;;;;;22.26;54.47;99026.81;6255620;28;19921;-85
2022/06/21 00:33:47;;;;;;;;;;;;;;;22.25;54.41;99027.81;6255772;28;19931;-84
2022/06/21 00:36:48;;;;;;;;;;;;;;;22.19;55.04;99018.75;6256002;28;19920;-83
2022/06/21 00:39:51;;;;;;;;;;;;;;;22.14;55.03;99011.38;6257117;28;19925;-82
2022/06/21 00:42:59;;;;;;;;;;;;;;;22.11;55.40;99010.94;6255245;28;20020;-82
2022/06/21 00:46:01;;;;;;;;;;;;;;;22.13;55.50;99006.25;6255543;28;19925;-82
2022/06/21 00:49:02;;;;;;;;;;;;;;;22.10;55.33;98996.03;6260721;28;19944;-85
2022/06/21 00:52:06;;;;;;;;;;;;;;;22.09;55.47;98997.88;6269831;28;19921;-84
2022/06/21 00:55:30;;;;;;;;;;;;;;;22.14;55.40;98995.44;6270928;28;20394;-85
2022/06/21 00:58:31;;;;;;;;;;;;;;;22.08;55.46;98992.72;6268886;28;20518;-85
2022/06/21 01:01:36;;;;;;;;;;;;;;;22.02;56.15;98996.97;6250639;28;20371;-82
2022/06/21 01:04:42;;;;;;;;;;;;;;;22.08;55.37;98993.56;6300459;28;19921;-81
2022/06/21 01:07:46;;;;;;;;;;;;;;;22.01;56.06;98992.69;6268853;28;20005;-81
2022/06/21 01:10:48;;;;;;;;;;;;;;;21.97;56.26;98983.47;6269922;28;19971;-86
2022/06/21 01:13:52;;;;;;;;;;;;;;;22.05;55.91;98985.13;6269305;28;19920;-84
2022/06/21 01:16:55;;;;;;;;;;;;;;;22.04;56.32;98983.50;6270309;28;19927;-81
2022/06/21 01:19:58;;;;;;;;;;;;;;;21.99;55.76;98976.13;6285359;28;19927;-87
2022/06/21 01:23:17;;;;;;;;;;;;;;;21.92;56.17;98961.97;6269054;28;19928;-81
2022/06/21 01:26:40;;;;;;;;;;;;;;;21.90;56.38;98950.72;6275041;28;19921;-80
2022/06/21 01:29:41;;;;;;;;;;;;;;;21.90;56.48;98943.56;6273612;28;19920;-86
2022/06/21 01:32:42;;;;;;;;;;;;;;;21.84;56.93;98947.00;6275140;28;20016;-84
2022/06/21 01:35:51;;;;;;;;;;;;;;;21.79;57.17;98951.28;6275408;28;19920;-84
2022/06/21 01:38:56;;;;;;;;;;;;;;;21.84;56.90;98957.63;6273774;28;19924;-86
2022/06/21 01:42:01;;;;;;;;;;;;;;;21.74;57.52;98965.09;6273659;28;19920;-86
2022/06/21 01:45:07;;;;;;;;;;;;;;;21.66;57.84;98954.63;6273780;28;19972;-85
2022/06/21 01:48:29;;;;;;;;;;;;;;;21.69;57.57;98964.88;6273331;28;19927;-80
2022/06/21 01:51:33;;;;;;;;;;;;;;;21.68;57.85;98961.41;6273232;28;20368;-82
2022/06/21 01:54:35;;;;;;;;;;;;;;;21.69;58.11;98955.06;6273365;28;19920;-86
2022/06/21 01:57:37;;;;;;;;;;;;;;;21.66;58.82;98942.19;6274441;28;19946;-82
2022/06/21 02:00:42;;;;;;;;;;;;;;;21.63;59.06;98955.00;6272954;28;19921;-82
2022/06/21 02:03:44;;;;;;;;;;;;;;;21.68;59.28;98949.94;6274273;28;20015;-85
2022/06/21 02:06:46;;;;;;;;;;;;;;;21.61;59.23;98968.47;6273060;28;19930;-83
2022/06/21 02:09:53;;;;;;;;;;;;;;;21.62;59.41;98958.66;6273210;28;19924;-86
2022/06/21 02:12:59;;;;;;;;;;;;;;;21.60;59.50;98969.50;6273060;28;19921;-86
2022/06/21 02:16:09;;;;;;;;;;;;;;;21.58;60.04;98971.53;6272856;28;19927;-85
2022/06/21 02:19:26;;;;;;;;;;;;;;;21.60;59.92;98964.19;6272835;28;19921;-83
2022/06/21 02:22:29;;;;;;;;;;;;;;;21.67;60.76;98970.34;6288910;28;19932;-83
2022/06/21 02:25:29;;;;;;;;;;;;;;;21.75;60.26;98955.31;6274190;28;19978;-82
2022/06/21 02:28:30;;;;;;;;;;;;;;;21.78;60.11;98942.47;6272481;28;19943;-85
2022/06/21 02:31:32;;;;;;;;;;;;;;;21.78;60.20;98955.72;6305666;28;19925;-85
2022/06/21 02:34:37;;;;;;;;;;;;;;;21.76;60.32;98956.94;6273447;28;20406;-85
2022/06/21 02:37:40;;;;;;;;;;;;;;;21.73;60.09;98952.84;6272104;28;19921;-85
2022/06/21 02:40:44;;;;;;;;;;;;;;;21.72;60.00;98960.00;6272139;28;20069;-83
2022/06/21 02:43:51;;;;;;;;;;;;;;;21.69;61.15;98970.19;6288674;28;19998;-86
2022/06/21 02:47:01;;;;;;;;;;;;;;;21.74;60.36;98986.34;6273346;28;19921;-86
2022/06/21 02:50:04;;;;;;;;;;;;;;;21.64;61.56;98989.34;6273140;28;19925;-85
2022/06/21 02:53:11;;;;;;;;;;;;;;;21.63;61.45;98981.56;6271774;28;19931;-83
2022/06/21 02:56:18;;;;;;;;;;;;;;;21.59;61.95;98990.91;6272339;28;19969;-87
2022/06/21 02:59:18;;;;;;;;;;;;;;;21.58;62.78;98989.25;6273441;28;19958;-82
2022/06/21 03:02:26;;;;;;;;;;;;;;;21.62;63.11;98993.16;6288238;28;20383;-83
2022/06/21 03:05:28;;;;;;;;;;;;;;;21.66;64.05;98989.13;6272995;28;19921;-84
2022/06/21 03:08:31;;;;;;;;;;;;;;;21.63;65.42;98981.56;6272485;28;19927;-83
2022/06/21 03:11:34;;;;;;;;;;;;;;;21.65;66.14;98987.50;6271158;28;19928;-83
2022/06/21 03:14:36;;;;;;;;;;;;;;;21.63;67.24;98987.69;6271045;28;19921;-82
2022/06/21 03:17:44;;;;;;;;;;;;;;;21.61;68.62;98996.84;6288254;28;20291;-82
2022/06/21 03:20:46;;;;;;;;;;;;;;;21.65;69.74;99004.25;6272080;28;20387;-82
2022/06/21 03:23:46;;;;;;;;;;;;;;;21.66;71.11;99003.25;6271192;28;19921;-83
2022/06/21 03:26:51;;;;;;;;;;;;;;;21.75;71.01;99005.75;6272043;28;19943;-83
2022/06/21 03:29:52;;;;;;;;;;;;;;;21.68;72.74;99009.19;6271147;28;19920;-83
2022/06/21 03:32:54;;;;;;;;;;;;;;;21.75;73.67;99011.88;6270741;28;20291;-79
2022/06/21 03:35:55;;;;;;;;;;;;;;;21.82;74.70;99014.59;6270696;28;19921;-83
2022/06/21 03:39:09;;;;;;;;;;;;;;;21.85;75.69;99022.19;6270507;28;20445;-83
2022/06/21 03:42:11;;;;;;;;;;;;;;;21.92;76.30;99020.41;6271741;28;19921;-80
2022/06/21 03:45:21;;;;;;;;;;;;;;;21.97;76.22;99025.97;6271594;28;19939;-83
2022/06/21 03:48:30;;;;;;;;;;;;;;;22.16;76.49;99019.16;6269643;28;19921;-85
2022/06/21 03:51:42;;;;;;;;;;;;;;;22.32;75.19;99018.03;6270407;28;19920;-83
2022/06/21 03:54:46;;;;;;;;;;;;;;;22.57;74.29;99022.88;6270159;28;20402;-83
2022/06/21 03:58:06;;;;;;;;;;;;;;;22.66;73.90;99035.03;6271215;28;19990;-82
2022/06/21 04:01:07;;;;;;;;;;;;;;;22.78;75.77;99038.75;6269947;28;19920;-82
2022/06/21 04:04:15;;;;;;;;;;;;;;;22.80;73.67;99038.56;6286567;28;20005;-81
2022/06/21 04:07:20;;;;;;;;;;;;;;;22.80;74.06;99041.22;6271124;28;19927;-83
2022/06/21 04:10:41;;;;;;;;;;;;;;;22.98;73.48;99054.81;6269898;28;19925;-83
2022/06/21 04:14:05;;;;;;;;;;;;;;;22.98;73.18;99051.31;6269915;28;19931;-83
2022/06/21 04:17:17;;;;;;;;;;;;;;;23.21;71.24;99061.69;6269182;28;19971;-82
2022/06/21 04:20:24;;;;;;;;;;;;;;;23.50;70.05;99055.22;6269170;28;20268;-83
2022/06/21 04:23:43;;;;;;;;;;;;;;;23.59;68.57;99053.97;6269796;28;20015;-82
2022/06/21 04:26:50;;;;;;;;;;;;;;;23.82;68.60;99052.81;6269747;28;19921;-83
2022/06/21 04:30:12;;;;;;;;;;;;;;;23.97;66.83;99049.94;6269768;28;19920;-85
2022/06/21 04:33:16;;;;;;;;;;;;;;;24.09;65.60;99058.97;6269657;28;20445;-83
2022/06/21 04:36:22;;;;;;;;;;;;;;;24.29;64.39;99059.78;6270490;28;19994;-85
2022/06/21 04:39:35;;;;;;;;;;;;;;;24.42;65.02;99060.78;6269788;28;20047;-81
2022/06/21 04:42:46;;;;;;;;;;;;;;;24.28;63.51;99076.81;6269565;28;19924;-79
2022/06/21 04:45:50;;;;;;;;;;;;;;;24.32;63.91;99069.22;6269043;28;19927;-79
2022/06/21 04:48:59;;;;;;;;;;;;;;;24.26;63.60;99080.72;6268887;28;20379;-79
2022/06/21 04:52:03;;;;;;;;;;;;;;;24.17;63.44;99069.41;6269496;28;20013;-81
2022/06/21 04:55:04;;;;;;;;;;;;;;;24.06;63.92;99076.19;6269479;28;20375;-82
2022/06/21 04:58:05;;;;;;;;;;;;;;;23.96;64.13;99080.28;6269957;28;19924;-81
2022/06/21 05:01:29;;;;;;;;;;;;;;;24.04;62.51;99094.22;6273603;28;19921;-82
2022/06/21 05:04:31;;;;;;;;;;;;;;;24.14;63.49;99102.63;6275194;28;19931;-78
2022/06/21 05:07:34;;;;;;;;;;;;;;;24.07;62.74;99108.97;6257701;28;19921;-82
2022/06/21 05:10:37;;;;;;;;;;;;;;;24.06;61.77;99113.50;6274282;28;19931;-81
2022/06/21 05:13:40;;;;;;;;;;;;;;;24.08;62.94;99111.44;6257781;28;19921;-80
2022/06/21 05:16:41;;;;;;;;;;;;;;;24.02;62.26;99122.09;6273706;28;20330;-80
2022/06/21 05:19:45;;;;;;;;;;;;;;;23.99;61.51;99131.31;6257580;28;19924;-78
2022/06/21 05:22:49;;;;;;;;;;;;;;;24.11;61.67;99128.84;6274658;28;20286;-84
2022/06/21 05:25:50;;;;;;;;;;;;;;;24.18;62.74;99131.56;6274480;28;20398;-85
2022/06/21 05:28:57;;;;;;;;;;;;;;;24.14;61.72;99133.78;6274407;28;19932;-80
2022/06/21 05:32:02;;;;;;;;;;;;;;;24.26;61.76;99134.00;6274673;28;19964;-79
2022/06/21 05:35:09;;;;;;;;;;;;;;;24.00;60.94;99148.94;6256777;28;19921;-80
2022/06/21 05:38:11;;;;;;;;;;;;;;;24.31;61.54;99145.69;6273630;28;19920;-85
2022/06/21 05:41:38;;;;;;;;;;;;;;;24.11;61.84;99152.84;6273750;28;19920;-85
2022/06/21 05:44:49;;;;;;;;;;;;;;;24.29;61.64;99152.25;6272357;28;20023;-83
2022/06/21 05:47:57;;;;;;;;;;;;;;;24.31;61.55;99156.34;6273575;28;19927;-82
2022/06/21 05:51:00;;;;;;;;;;;;;;;24.36;62.01;99165.56;6272606;28;19921;-87
2022/06/21 05:54:12;;;;;;;;;;;;;;;24.25;61.72;99154.50;6272101;28;19921;-82
2022/06/21 05:57:15;;;;;;;;;;;;;;;24.52;60.65;99157.19;6255834;28;20411;-81
2022/06/21 06:00:23;;;;;;;;;;;;;;;24.64;61.52;99157.41;6273790;28;19932;-82
2022/06/21 06:03:32;;;;;;;;;;;;;;;24.77;62.47;99152.06;6273004;28;19921;-83
2022/06/21 06:06:36;;;;;;;;;;;;;;;24.80;61.05;99151.63;6273507;28;19920;-84
2022/06/21 06:09:39;;;;;;;;;;;;;;;24.98;61.30;99147.47;6273682;28;19920;-82
2022/06/21 06:12:42;;;;;;;;;;;;;;;25.14;59.48;99153.19;6255054;28;19924;-80
2022/06/21 06:15:50;;;;;;;;;;;;;;;25.19;60.20;99152.56;6272740;28;19928;-83
2022/06/21 06:18:53;;;;;;;;;;;;;;;25.04;58.53;99158.16;6254803;28;20402;-80
2022/06/21 06:22:09;;;;;;;;;;;;;;;25.08;57.98;99156.72;6272013;28;19943;-80
2022/06/21 06:25:10;;;;;;;;;;;;;;;25.37;57.55;99156.41;6272055;28;19920;-81
2022/06/21 06:28:20;;;;;;;;;;;;;;;25.37;58.70;99153.75;6271974;28;19920;-80
2022/06/21 06:31:28;;;;;;;;;;;;;;;25.45;55.70;99162.38;6271816;28;19920;-78
2022/06/21 06:34:31;;;;;;;;;;;;;;;25.48;55.04;99166.44;6255275;28;20312;-80
2022/06/21 06:37:37;;;;;;;;;;;;;;;25.86;54.09;99165.63;6273508;28;20386;-80
2022/06/21 06:40:43;;;;;;;;;;;;;;;26.21;54.12;99168.75;6272605;28;19921;-82
2022/06/21 06:43:47;;;;;;;;;;;;;;;26.20;53.22;99172.44;6273130;28;19921;-81
2022/06/21 06:46:49;;;;;;;;;;;;;;;26.23;50.76;99174.69;6273095;28;20015;-81
2022/06/21 06:49:54;;;;;;;;;;;;;;;26.26;49.50;99174.25;6274171;28;19928;-81
2022/06/21 06:52:59;;;;;;;;;;;;;;;26.11;49.28;99174.56;6274184;28;19932;-83
2022/06/21 06:56:01;;;;;;;;;;;;;;;26.52;45.57;99178.56;6256118;28;20375;-81
2022/06/21 06:59:13;;;;;;;;;;;;;;;26.81;34.74;99178.13;6256152;28;19921;-82
2022/06/21 07:02:17;;;;;;;;;;;;;;;26.59;47.72;99189.25;6273756;28;19935;-82
2022/06/21 07:05:20;;;;;;;;;;;;;;;26.69;37.05;99189.56;6289316;28;19920;-81
2022/06/21 07:08:29;;;;;;;;;;;;;;;26.81;35.35;99189.66;6272518;28;19924;-80
2022/06/21 07:11:46;;;;;;;;;;;;;;;27.18;31.70;99205.78;6289072;28;20019;-81
2022/06/21 07:14:48;;;;;;;;;;;;;;;27.46;41.14;99212.47;6272498;28;19921;-80
2022/06/21 07:17:51;;;;;;;;;;;;;;;27.22;52.41;99219.50;6273330;28;19921;-81
2022/06/21 07:20:52;;;;;;;;;;;;;;;26.82;54.74;99233.28;6288391;28;20366;-81
2022/06/21 07:23:56;;;;;;;;;;;;;;;26.73;56.73;99224.72;6237512;28;19920;-80
2022/06/21 07:27:01;;;;;;;;;;;;;;;27.18;53.94;99227.19;6272048;28;19920;-82
2022/06/21 07:30:08;;;;;;;;;;;;;;;27.09;53.52;99236.53;6271957;28;20009;-82
2022/06/21 07:33:17;;;;;;;;;;;;;;;27.07;53.36;99241.28;6271705;28;19935;-81
2022/06/21 07:36:21;;;;;;;;;;;;;;;27.45;53.14;99238.47;6253328;28;20268;-81
2022/06/21 07:39:22;;;;;;;;;;;;;;;27.44;52.68;99239.47;6270334;28;20374;-82
2022/06/21 07:42:28;;;;;;;;;;;;;;;27.65;52.51;99246.25;6286779;28;19946;-81
2022/06/21 07:45:34;;;;;;;;;;;;;;;27.48;51.13;99254.06;6270384;28;19920;-81
2022/06/21 07:48:38;;;;;;;;;;;;;;;27.47;52.80;99254.31;6271303;28;20322;-80
2022/06/21 07:51:42;;;;;;;;;;;;;;;27.69;50.74;99250.09;6269801;28;19921;-82
2022/06/21 07:54:51;;;;;;;;;;;;;;;27.18;50.88;99256.66;6270234;28;19947;-81
2022/06/21 07:57:56;;;;;;;;;;;;;;;27.21;50.62;99260.72;6270147;28;19927;-82
2022/06/21 08:07:45;;;;;;;;;;;;;;;27.71;48.93;99272.13;6269565;28;19920;-82
2022/06/21 08:10:46;;;;;;;;;;;;;;;27.61;48.80;99271.03;6269741;28;20290;-83
2022/06/21 08:13:52;;;;;;;;;;;;;;;27.87;49.24;99262.72;6286307;28;19970;-81
2022/06/21 08:16:52;;;;;;;;;;;;;;;26.73;52.01;99271.03;6269646;28;19958;-81
2022/06/21 08:20:07;;;;;;;;;;;;;;;27.03;51.61;99275.72;6269653;28;19969;-82
2022/06/21 08:23:18;;;;;;;;;;;;;;;26.92;51.96;99269.22;6269444;28;20371;-83
2022/06/21 08:26:19;;;;;;;;;;;;;;;27.68;49.87;99275.28;6269472;28;20043;-82
2022/06/21 08:29:22;;;;;;;;;;;;;;;27.77;47.31;99281.16;6269509;28;20272;-82
2022/06/21 08:32:41;;;;;;;;;;;;;;;28.08;47.54;99277.47;6270650;28;19920;-83
2022/06/21 08:36:06;;;;;;;;;;;;;;;27.96;47.98;99281.16;6275392;28;19921;-82
2022/06/21 08:39:09;;;;;;;;;;;;;;;28.16;44.89;99279.03;6268989;28;19928;-81
2022/06/21 08:42:29;;;;;;;;;;;;;;;28.50;46.96;99284.78;6291088;28;19921;-81
2022/06/21 08:45:41;;;;;;;;;;;;;;;28.58;45.14;99276.41;6275141;28;19944;-81
2022/06/21 08:48:42;;;;;;;;;;;;;;;27.97;45.43;99275.56;6292300;28;20272;-79
2022/06/21 08:52:02;;;;;;;;;;;;;;;28.45;46.00;99274.69;6292489;28;19927;-81
2022/06/21 08:55:11;;;;;;;;;;;;;;;27.88;46.20;99282.28;6292501;28;19928;-82
2022/06/21 08:58:31;;;;;;;;;;;;;;;27.49;45.46;99273.66;6275942;28;19928;-83
2022/06/21 09:01:31;;;;;;;;;;;;;;;27.39;47.74;99281.41;6275544;28;19921;-81
2022/06/21 09:04:48;;;;;;;;;;;;;;;28.26;43.46;99279.31;6275380;28;19943;-78
2022/06/21 09:07:51;;;;;;;;;;;;;;;28.64;39.91;99275.50;6275563;28;20291;-83
2022/06/21 09:11:11;;;;;;;;;;;;;;;28.71;45.61;99278.06;6275377;28;19920;-84
2022/06/21 09:14:27;;;;;;;;;;;;;;;27.84;43.67;99276.53;6284742;28;19971;-82
2022/06/21 09:17:34;;;;;;;;;;;;;;;27.83;43.97;99282.13;6251680;28;19971;-83
2022/06/21 09:20:42;;;;;;;;;;;;;;;28.62;42.68;99272.22;6250327;28;19936;-83
2022/06/21 09:23:49;;;;;;;;;;;;;;;28.66;41.36;99272.56;6248982;28;20008;-84
2022/06/21 09:27:09;;;;;;;;;;;;;;;29.35;39.51;99266.66;6249419;28;20376;-82
2022/06/21 09:30:12;;;;;;;;;;;;;;;29.31;37.73;99271.69;6250286;28;19921;-83
2022/06/21 09:33:19;;;;;;;;;;;;;;;29.27;37.76;99276.69;6250225;28;19921;-82
2022/06/21 09:36:29;;;;;;;;;;;;;;;29.09;38.10;99271.41;6250429;28;20295;-82
2022/06/21 09:39:48;;;;;;;;;;;;;;;29.86;39.67;99271.25;6233763;28;19928;-82
2022/06/21 09:42:56;;;;;;;;;;;;;;;30.05;36.77;99268.38;6249992;28;19948;-83
2022/06/21 09:46:18;;;;;;;;;;;;;;;30.04;39.24;99262.19;6233373;28;20007;-81
2022/06/21 09:49:40;;;;;;;;;;;;;;;30.46;36.26;99263.75;6233279;28;20289;-82
2022/06/21 09:52:52;;;;;;;;;;;;;;;30.31;36.55;99262.44;6249486;28;19928;-80
2022/06/21 09:55:58;;;;;;;;;;;;;;;30.62;37.99;99257.56;6249822;28;20380;-81
2022/06/21 09:59:06;;;;;;;;;;;;;;;31.08;33.99;99273.66;6233375;28;19921;-82
2022/06/21 10:02:08;;;;;;;;;;;;;;;30.97;34.33;99270.00;6233171;28;20356;-80
2022/06/21 10:05:11;;;;;;;;;;;;;;;30.46;35.49;99264.56;6232632;28;19932;-80
2022/06/21 10:08:12;;;;;;;;;;;;;;;30.36;35.16;99261.69;6249437;28;20019;-80
2022/06/21 10:11:16;;;;;;;;;;;;;;;29.91;35.40;99274.03;6232784;28;19921;-83
2022/06/21 10:14:22;;;;;;;;;;;;;;;28.76;37.47;99262.06;6232496;28;20025;-80
2022/06/21 10:17:42;;;;;;;;;;;;;;;29.66;35.03;99265.44;6251511;28;19921;-81
2022/06/21 10:20:52;;;;;;;;;;;;;;;30.21;31.70;99258.69;6272223;28;19924;-80
2022/06/21 10:24:09;;;;;;;;;;;;;;;30.32;32.75;99261.34;6273795;28;19927;-80
2022/06/21 10:27:29;;;;;;;;;;;;;;;30.87;32.29;99269.81;6257305;28;20015;-79
2022/06/21 10:30:32;;;;;;;;;;;;;;;30.16;31.96;99259.41;6273598;28;20375;-83
2022/06/21 10:33:35;;;;;;;;;;;;;;;30.98;31.54;99274.31;6273455;28;19927;-83
2022/06/21 10:36:39;;;;;;;;;;;;;;;30.81;29.75;99271.59;6272803;28;19951;-83
2022/06/21 10:40:02;;;;;;;;;;;;;;;31.04;29.50;99267.13;6271933;28;20007;-84
2022/06/21 10:43:21;;;;;;;;;;;;;;;30.14;28.60;99266.91;6271396;28;19943;-84
2022/06/21 10:46:28;;;;;;;;;;;;;;;30.49;28.41;99266.75;6270934;28;19921;-86
2022/06/21 10:49:48;;;;;;;;;;;;;;;30.14;29.01;99258.84;6256333;28;19920;-85
2022/06/21 10:53:13;;;;;;;;;;;;;;;31.15;29.08;99258.09;6272983;28;19927;-82
2022/06/21 11:04:08;;;;;;;;;;;;;;;31.19;29.71;99261.94;6272523;28;19928;-83
2022/06/21 11:07:32;;;;;;;;;;;;;;;30.34;32.59;99258.44;6260500;28;19920;-85
2022/06/21 11:10:40;;;;;;;;;;;;;;;29.62;31.84;99264.28;6273083;28;19920;-85
2022/06/21 11:13:47;;;;;;;;;;;;;;;29.69;25.86;99264.94;6274119;28;19921;-83
2022/06/21 11:17:06;;;;;;;;;;;;;;;30.76;25.95;99259.94;6272343;28;19986;-87
2022/06/21 11:20:34;;;;;;;;;;;;;;;31.61;29.09;99255.22;6255039;28;19951;-81
2022/06/21 11:23:41;;;;;;;;;;;;;;;30.18;31.06;99269.94;6272122;28;20025;-84
2022/06/21 11:26:51;;;;;;;;;;;;;;;30.55;31.41;99267.66;6271842;28;19949;-83
2022/06/21 11:29:52;;;;;;;;;;;;;;;30.00;27.49;99277.16;6271775;28;19921;-84
2022/06/21 11:32:55;;;;;;;;;;;;;;;30.81;28.39;99265.41;6255504;28;19921;-83
2022/06/21 11:35:59;;;;;;;;;;;;;;;29.42;29.12;99280.78;6253305;28;19928;-85
2022/06/21 11:39:03;;;;;;;;;;;;;;;30.26;28.90;99266.88;6268515;28;19920;-83
2022/06/21 11:42:23;;;;;;;;;;;;;;;31.25;27.34;99265.53;6272086;28;19921;-82
2022/06/21 11:45:31;;;;;;;;;;;;;;;29.65;27.40;99263.78;6271877;28;20298;-82
2022/06/21 11:48:37;;;;;;;;;;;;;;;30.58;27.94;99261.81;6270589;28;19924;-81
2022/06/21 11:51:39;;;;;;;;;;;;;;;31.33;26.62;99263.22;6263562;28;20398;-84
2022/06/21 11:54:53;;;;;;;;;;;;;;;30.52;27.44;99265.47;6269033;28;20151;-84
2022/06/21 11:57:56;;;;;;;;;;;;;;;30.57;28.36;99264.75;6269729;28;19927;-81
2022/06/21 12:01:11;;;;;;;;;;;;;;;30.43;28.37;99248.09;6270813;28;20389;-82
2022/06/21 12:04:18;;;;;;;;;;;;;;;29.99;29.48;99251.31;6252685;28;19931;-82
2022/06/21 12:07:26;;;;;;;;;;;;;;;29.44;27.31;99244.53;6269292;28;19972;-82
2022/06/21 12:10:29;;;;;;;;;;;;;;;30.12;26.89;99248.34;6252984;28;19920;-82
2022/06/21 12:13:42;;;;;;;;;;;;;;;30.37;28.26;99249.06;6270062;28;19921;-82
2022/06/21 12:17:03;;;;;;;;;;;;;;;29.93;27.35;99254.97;6286459;28;19928;-85
2022/06/21 12:20:10;;;;;;;;;;;;;;;30.59;29.94;99246.47;6269794;28;19921;-81
2022/06/21 12:23:20;;;;;;;;;;;;;;;30.93;26.68;99240.03;6271289;28;19920;-83
2022/06/21 12:26:23;;;;;;;;;;;;;;;30.10;26.45;99242.41;6286574;28;20326;-85
2022/06/21 12:29:24;;;;;;;;;;;;;;;31.12;29.47;99242.47;6270070;28;19959;-83
2022/06/21 12:32:25;;;;;;;;;;;;;;;30.53;26.04;99241.00;6253261;28;19927;-82
2022/06/21 12:35:46;;;;;;;;;;;;;;;30.68;27.10;99226.97;6270909;28;19920;-84
2022/06/21 12:38:58;;;;;;;;;;;;;;;29.53;27.58;99239.66;6254400;28;19983;-84
2022/06/21 12:42:09;;;;;;;;;;;;;;;30.80;27.23;99229.56;6271083;28;19952;-85
2022/06/21 12:45:29;;;;;;;;;;;;;;;30.05;29.21;99230.72;6287727;28;19960;-83
2022/06/21 12:48:48;;;;;;;;;;;;;;;29.23;28.45;99231.75;6287711;28;19924;-87
2022/06/21 12:52:02;;;;;;;;;;;;;;;29.15;26.85;99227.53;6287639;28;19921;-82
2022/06/21 12:55:26;;;;;;;;;;;;;;;29.64;28.03;99219.97;6254217;28;19920;-83
2022/06/21 12:58:46;;;;;;;;;;;;;;;29.24;27.48;99223.47;6270565;28;19960;-83
2022/06/21 13:02:07;;;;;;;;;;;;;;;30.13;28.03;99216.88;6287376;28;19924;-84
2022/06/21 13:05:19;;;;;;;;;;;;;;;29.78;27.75;99209.78;6271649;28;19928;-83
2022/06/21 13:08:20;;;;;;;;;;;;;;;30.00;23.66;99207.25;6267820;28;19990;-77
2022/06/21 13:11:21;;;;;;;;;;;;;;;29.84;20.34;99216.91;6269615;28;20375;-79
2022/06/21 13:14:28;;;;;;;;;;;;;;;29.28;20.00;99226.47;6267654;28;19925;-81
2022/06/21 13:17:35;;;;;;;;;;;;;;;28.93;18.66;99225.44;6269870;28;20014;-83
2022/06/21 13:20:41;;;;;;;;;;;;;;;29.24;18.05;99219.94;6256021;28;20395;-84
2022/06/21 13:24:01;;;;;;;;;;;;;;;29.54;19.23;99222.44;6274156;28;19967;-83
2022/06/21 13:27:08;;;;;;;;;;;;;;;28.58;18.53;99221.91;6257967;28;20384;-81
2022/06/21 13:30:11;;;;;;;;;;;;;;;29.33;18.14;99235.47;6275995;28;20618;-83
2022/06/21 13:33:28;;;;;;;;;;;;;;;29.50;17.61;99229.34;6258401;28;19925;-81
2022/06/21 13:36:47;;;;;;;;;;;;;;;29.50;17.08;99224.78;6274461;28;20383;-85
2022/06/21 13:39:51;;;;;;;;;;;;;;;29.20;17.65;99233.03;6257740;28;19920;-87
2022/06/21 13:42:55;;;;;;;;;;;;;;;29.50;18.27;99234.72;6275321;28;20398;-84
2022/06/21 13:46:05;;;;;;;;;;;;;;;28.86;18.71;99240.03;6273971;28;19974;-82
2022/06/21 13:49:19;;;;;;;;;;;;;;;29.04;17.66;99231.03;6275235;28;20011;-81
2022/06/21 13:52:43;;;;;;;;;;;;;;;29.03;18.05;99230.19;6273360;28;19927;-82
2022/06/21 13:55:46;;;;;;;;;;;;;;;28.84;17.75;99229.50;6269900;28;20371;-81
2022/06/21 13:59:05;;;;;;;;;;;;;;;28.48;17.68;99243.94;6273851;28;19948;-80
2022/06/21 14:02:27;;;;;;;;;;;;;;;28.17;17.45;99242.31;6272797;28;20027;-77
2022/06/21 14:05:28;;;;;;;;;;;;;;;28.01;17.80;99241.91;6272099;28;20075;-80
2022/06/21 14:08:33;;;;;;;;;;;;;;;28.23;18.81;99234.19;6272465;28;19921;-80
2022/06/21 14:11:44;;;;;;;;;;;;;;;28.56;18.75;99240.09;6272582;28;19943;-79
2022/06/21 14:14:52;;;;;;;;;;;;;;;28.49;18.76;99240.19;6273500;28;19927;-78
2022/06/21 14:18:02;;;;;;;;;;;;;;;28.48;19.83;99235.88;6272100;28;20018;-79
2022/06/21 14:21:02;;;;;;;;;;;;;;;28.19;19.32;99234.84;6271255;28;20003;-84
2022/06/21 14:24:22;;;;;;;;;;;;;;;28.36;19.69;99229.66;6271873;28;19920;-81
2022/06/21 14:27:28;;;;;;;;;;;;;;;28.22;19.32;99239.75;6272754;28;19921;-78
2022/06/21 14:30:39;;;;;;;;;;;;;;;28.01;20.36;99233.88;6271504;28;19921;-78
2022/06/21 14:33:49;;;;;;;;;;;;;;;28.07;19.67;99230.28;6271357;28;20383;-81
2022/06/21 14:36:58;;;;;;;;;;;;;;;28.08;19.36;99236.44;6273203;28;20023;-78
2022/06/21 14:40:08;;;;;;;;;;;;;;;28.17;19.37;99234.25;6255609;28;20402;-79
2022/06/21 14:43:16;;;;;;;;;;;;;;;28.05;18.97;99226.19;6272842;28;19920;-79
2022/06/21 14:46:16;;;;;;;;;;;;;;;27.87;19.75;99227.06;6287076;28;20397;-79
2022/06/21 14:49:24;;;;;;;;;;;;;;;27.74;19.84;99223.47;6270960;28;19921;-79
2022/06/21 14:52:27;;;;;;;;;;;;;;;27.73;19.46;99218.31;6271382;28;19920;-81
2022/06/21 14:55:46;;;;;;;;;;;;;;;27.88;19.55;99218.78;6272986;28;19928;-80
2022/06/21 14:59:06;;;;;;;;;;;;;;;27.59;19.90;99214.97;6271683;28;20283;-82
2022/06/21 15:02:16;;;;;;;;;;;;;;;27.78;19.36;99209.59;6271567;28;20023;-81
2022/06/21 15:05:39;;;;;;;;;;;;;;;27.70;20.24;99218.78;6271989;28;20203;-80
2022/06/21 15:08:44;;;;;;;;;;;;;;;27.62;20.84;99219.91;6271788;28;19921;-79
2022/06/21 15:11:56;;;;;;;;;;;;;;;27.72;20.46;99216.69;6271632;28;19920;-83
2022/06/21 15:14:59;;;;;;;;;;;;;;;27.46;19.38;99223.19;6254944;28;19920;-83
2022/06/21 15:18:09;;;;;;;;;;;;;;;27.19;19.62;99228.81;6254745;28;20373;-87
2022/06/21 15:21:15;;;;;;;;;;;;;;;27.37;19.91;99232.59;6271918;28;20299;-84
2022/06/21 15:24:24;;;;;;;;;;;;;;;27.37;19.84;99232.59;6272825;28;19920;-85
2022/06/21 15:27:29;;;;;;;;;;;;;;;27.29;19.42;99234.50;6272653;28;19925;-85
2022/06/21 15:30:39;;;;;;;;;;;;;;;27.65;20.42;99240.06;6254650;28;19925;-83
2022/06/21 15:33:49;;;;;;;;;;;;;;;27.67;19.87;99232.63;6270914;28;20367;-81
2022/06/21 15:36:52;;;;;;;;;;;;;;;27.80;19.90;99224.44;6271920;28;19928;-81
2022/06/21 15:40:05;;;;;;;;;;;;;;;27.25;26.05;99236.00;6271850;28;19920;-78
2022/06/21 15:43:11;;;;;;;;;;;;;;;27.16;28.55;99256.03;6271419;28;19974;-81
2022/06/21 15:46:26;;;;;;;;;;;;;;;27.31;28.51;99253.03;6270423;28;20390;-82
2022/06/21 15:52:59;;;;;;;;;;;;;;;27.42;28.57;99275.56;6271418;28;19921;-82
2022/06/21 15:56:03;;;;;;;;;;;;;;;26.85;29.37;99278.34;6271482;28;19920;-82
2022/06/21 15:59:19;;;;;;;;;;;;;;;27.36;28.87;99274.59;6271261;28;20421;-80
2022/06/21 16:02:35;;;;;;;;;;;;;;;27.51;28.59;99259.00;6253367;28;20291;-81
2022/06/21 16:05:36;;;;;;;;;;;;;;;27.41;29.50;99264.06;6270103;28;19921;-81
2022/06/21 16:08:42;;;;;;;;;;;;;;;26.99;29.21;99279.84;6271149;28;19931;-81
2022/06/21 16:11:45;;;;;;;;;;;;;;;27.10;28.79;99281.03;6269982;28;20200;-81
2022/06/21 16:14:50;;;;;;;;;;;;;;;27.16;28.59;99282.81;6269968;28;19920;-82
2022/06/21 16:17:55;;;;;;;;;;;;;;;26.80;30.41;99283.53;6269511;28;19922;-80
2022/06/21 16:20:57;;;;;;;;;;;;;;;26.89;28.26;99287.56;6269797;28;19928;-81
2022/06/21 16:24:01;;;;;;;;;;;;;;;26.76;28.36;99296.53;6269555;28;19924;-80
2022/06/21 16:27:08;;;;;;;;;;;;;;;26.84;28.25;99301.59;6268531;28;20019;-80
2022/06/21 16:30:11;;;;;;;;;;;;;;;26.82;27.79;99297.53;6268341;28;19925;-79
2022/06/21 16:33:27;;;;;;;;;;;;;;;26.60;27.86;99311.25;6269566;28;20323;-79
2022/06/21 16:36:43;;;;;;;;;;;;;;;26.54;27.71;99322.78;6268481;28;19925;-78